createdAt,value
2023-04-03T00:27:10.975Z,1.2
2023-04-03T00:37:13.194Z,1.6
2023-04-03T00:47:15.779Z,1.7
2023-04-03T00:57:17.552Z,1.7
2023-04-03T01:07:19.303Z,1.8
2023-04-03T01:17:21.636Z,1.8
2023-04-03T01:27:23.798Z,1.8
2023-04-03T01:37:25.946Z,1.7
2023-04-03T01:47:28.217Z,1.7
2023-04-03T01:57:30.412Z,1.7
2023-04-03T02:07:32.874Z,1.6
2023-04-03T02:17:34.749Z,1.5
2023-04-03T02:37:39.179Z,1.2
2023-04-03T02:47:41.446Z,1.1
2023-04-03T02:57:43.145Z,1
2023-04-03T03:17:47.685Z,0.7
2023-04-03T03:27:50.092Z,0.5
2023-04-03T03:37:52.011Z,0.3
2023-04-03T03:47:54.601Z,0.2
2023-04-03T03:57:56.853Z,0.2
2023-04-03T04:07:59.009Z,0.1
2023-04-03T04:18:01.203Z,0
2023-04-03T04:28:03.863Z,0
2023-04-03T04:38:05.616Z,-0.1
2023-04-03T04:48:07.708Z,-0.2
2023-04-03T04:58:09.994Z,-0.3
2023-04-03T05:08:12.074Z,-0.4
2023-04-03T05:28:16.288Z,-0.5
2023-04-03T05:38:18.370Z,-0.4
2023-04-03T05:48:20.825Z,-0.2
2023-04-03T05:58:23.258Z,-0.1
2023-04-03T06:08:25.213Z,0
2023-04-03T06:18:27.741Z,0
2023-04-03T06:28:29.918Z,0.1
2023-04-03T06:38:32.431Z,0.3
2023-04-03T06:48:34.762Z,0.6
2023-04-03T06:58:36.630Z,0.8
2023-04-03T07:08:38.506Z,0.9
2023-04-03T07:18:40.268Z,1
2023-04-03T07:28:42.396Z,1.4
2023-04-03T07:58:48.563Z,2.4
2023-04-03T09:39:09.931Z,5.4
2023-04-03T09:49:11.957Z,5.1
2023-04-03T09:59:14.004Z,5.9
2023-04-03T10:09:15.859Z,6.2
2023-04-03T10:19:17.752Z,5.8
2023-04-03T10:29:20.378Z,6
2023-04-03T10:39:22.393Z,6.5
2023-04-03T10:49:24.601Z,6.3
2023-04-03T10:59:27.195Z,6.4
2023-04-03T11:09:29.641Z,6.5
2023-04-03T11:29:35.243Z,7.1
2023-04-03T11:39:35.062Z,7.1
2023-04-03T11:59:38.982Z,7.7
2023-04-03T12:09:41.149Z,7.5
2023-04-03T12:19:43.315Z,8.2
2023-04-03T12:29:45.234Z,8.3
2023-04-03T12:39:46.773Z,8.7
2023-04-03T12:49:49.353Z,8.9
2023-04-03T13:09:52.875Z,7.9
2023-04-03T13:19:54.837Z,8.8
2023-04-03T13:29:56.628Z,8.5
2023-04-03T13:39:59.207Z,8.6
2023-04-03T13:50:01.528Z,8.6
2023-04-03T14:00:04.047Z,8.2
2023-04-03T14:10:06.627Z,8.5
2023-04-03T14:30:11.270Z,8.3
2023-04-03T14:40:13.494Z,7.9
2023-04-03T14:50:15.216Z,7.8
2023-04-03T15:00:17.653Z,8.3
2023-04-03T15:10:19.998Z,8
2023-04-03T15:20:21.998Z,7.4
2023-04-03T15:30:24.192Z,7.5
2023-04-03T15:40:26.514Z,7.1
2023-04-03T15:50:28.206Z,7.6
2023-04-03T15:50:35.053Z,7.6
2023-04-03T16:00:37.508Z,7.4
2023-04-03T16:10:40.089Z,7.5
2023-04-03T16:20:41.900Z,7.3
2023-04-03T16:30:43.555Z,7.3
2023-04-03T16:50:47.741Z,7.5
2023-04-03T17:10:52.764Z,7
2023-04-03T17:20:54.938Z,6.6
2023-04-03T17:30:57.396Z,6.3
2023-04-03T17:40:59.217Z,6.1
2023-04-03T17:51:01.338Z,5.7
2023-04-03T18:01:03.741Z,5.4
2023-04-03T18:11:06.086Z,5.2
2023-04-03T18:21:08.650Z,4.9
2023-04-03T18:31:10.901Z,4.7
2023-04-03T18:41:13.382Z,4.4
2023-04-03T19:01:17.633Z,4.1
2023-04-03T19:21:21.877Z,3.7
2023-04-03T19:41:26.466Z,3.4
2023-04-03T20:01:30.805Z,3.1
2023-04-03T20:21:35.470Z,2.7
2023-04-03T20:41:40.175Z,2.5
2023-04-03T21:01:44.666Z,2.2
2023-04-03T21:11:46.621Z,2.2
2023-04-03T21:21:48.529Z,2.1
2023-04-03T21:31:50.400Z,2.1
2023-04-03T21:41:52.630Z,1.8
2023-04-03T21:51:54.335Z,1.3
2023-04-03T22:01:56.693Z,0.9
2023-04-03T22:11:59.204Z,0.6
2023-04-03T22:22:01.189Z,0.4
2023-04-03T22:32:03.613Z,0.2
2023-04-03T22:42:05.599Z,0.1
2023-04-03T22:52:08.045Z,0
2023-04-03T23:02:10.603Z,0
2023-04-03T23:12:13.112Z,-0.1
2023-04-03T23:22:15.629Z,0
2023-04-03T23:32:18.195Z,-0.1
2023-04-03T23:42:20.352Z,-0.3
2023-04-03T23:52:22.939Z,-0.5
